Главная страница
METAR-TAF:

METAR-TAF

Аэропорты :

South Jersey Regional Airport

Mount Holly, Нью-Джерси, США

широта: 39-56-26N, долгота: 074-50-28W, высота над уровнем моря: 16 м

Текущие метеонаблюдения

Эта сводка был подготовлена 25 минут назад, в 09:54 UTC
Штиль
Температура 13°C
Влажность 94%
Давление 1015 hPa
Видимость: 12.9 км
ясное небо

METAR: KVAY 240954Z AUTO 00000KT 8SM CLR 13/12 A2996 RMK AO2 SLP146 T01280122

Время: 06:19 (10:19 UTC)


TAF: отсутствует

Метеонаблюдения и прогнозы для более 4000 аэропортов (сводки METAR и TAF).

Имеющиеся станции представлены на карте желтыми и красными точками.

Чтобы увидеть название станции, наведите на нее мышь.

Затем щелкните, чтобы увидеть метеонаблюдения и метеопрогнозы.

Управление картой: чтобы увеличить масштаб, щелкните зеленые кнопки с черным крестиком; чтобы уменьшить масштаб, щелкните зеленую кнопку с тире; для просмотра соседних карт щелкайте зеленые стрелки.


METAR-TAF: